sensor_id;sensor_type;location;lat;lon;timestamp;temperature;humidity
13436;DHT22;6790;49.520;8.504;2024-01-06T00:02:16;3.70;99.90
13436;DHT22;6790;49.520;8.504;2024-01-06T00:04:41;3.70;99.90
13436;DHT22;6790;49.520;8.504;2024-01-06T00:07:07;3.70;99.90
13436;DHT22;6790;49.520;8.504;2024-01-06T00:09:33;3.60;99.90
13436;DHT22;6790;49.520;8.504;2024-01-06T00:11:58;3.60;99.90
13436;DHT22;6790;49.520;8.504;2024-01-06T00:14:24;3.60;99.90
13436;DHT22;6790;49.520;8.504;2024-01-06T00:16:50;3.60;99.90
13436;DHT22;6790;49.520;8.504;2024-01-06T00:19:16;3.60;99.90
13436;DHT22;6790;49.520;8.504;2024-01-06T00:21:43;3.50;99.90
13436;DHT22;6790;49.520;8.504;2024-01-06T00:24:08;3.40;99.90
13436;DHT22;6790;49.520;8.504;2024-01-06T00:26:34;3.40;99.90
13436;DHT22;6790;49.520;8.504;2024-01-06T00:29:00;3.30;99.90
13436;DHT22;6790;49.520;8.504;2024-01-06T00:31:25;3.30;99.90
13436;DHT22;6790;49.520;8.504;2024-01-06T00:33:51;3.20;99.90
13436;DHT22;6790;49.520;8.504;2024-01-06T00:36:17;3.00;99.90
13436;DHT22;6790;49.520;8.504;2024-01-06T00:38:42;3.00;99.90
13436;DHT22;6790;49.520;8.504;2024-01-06T00:41:08;2.90;99.90
13436;DHT22;6790;49.520;8.504;2024-01-06T00:43:34;2.80;99.90
13436;DHT22;6790;49.520;8.504;2024-01-06T00:46:00;2.70;99.90
13436;DHT22;6790;49.520;8.504;2024-01-06T00:48:25;2.70;99.90
13436;DHT22;6790;49.520;8.504;2024-01-06T00:50:51;2.60;99.90
13436;DHT22;6790;49.520;8.504;2024-01-06T00:53:17;2.60;99.90
13436;DHT22;6790;49.520;8.504;2024-01-06T00:55:42;2.60;99.90
13436;DHT22;6790;49.520;8.504;2024-01-06T00:58:08;2.50;99.90
13436;DHT22;6790;49.520;8.504;2024-01-06T01:00:34;2.50;99.90
13436;DHT22;6790;49.520;8.504;2024-01-06T01:02:59;2.50;99.90
13436;DHT22;6790;49.520;8.504;2024-01-06T01:05:25;2.50;99.90
13436;DHT22;6790;49.520;8.504;2024-01-06T01:07:51;2.40;99.90
13436;DHT22;6790;49.520;8.504;2024-01-06T01:10:16;2.40;99.90
13436;DHT22;6790;49.520;8.504;2024-01-06T01:12:42;2.40;99.90
13436;DHT22;6790;49.520;8.504;2024-01-06T01:15:08;2.40;99.90
13436;DHT22;6790;49.520;8.504;2024-01-06T01:17:34;2.40;99.90
13436;DHT22;6790;49.520;8.504;2024-01-06T01:19:59;2.40;99.90
13436;DHT22;6790;49.520;8.504;2024-01-06T01:22:25;2.40;99.90
13436;DHT22;6790;49.520;8.504;2024-01-06T01:24:51;2.50;99.90
13436;DHT22;6790;49.520;8.504;2024-01-06T01:27:17;2.70;99.90
13436;DHT22;6790;49.520;8.504;2024-01-06T01:29:42;2.70;99.90
13436;DHT22;6790;49.520;8.504;2024-01-06T01:32:08;2.90;99.90
13436;DHT22;6790;49.520;8.504;2024-01-06T01:34:34;3.00;99.90
13436;DHT22;6790;49.520;8.504;2024-01-06T01:37:00;3.10;99.90
13436;DHT22;6790;49.520;8.504;2024-01-06T01:39:25;3.40;99.90
13436;DHT22;6790;49.520;8.504;2024-01-06T01:41:51;3.80;99.90
13436;DHT22;6790;49.520;8.504;2024-01-06T01:44:17;4.10;99.90
13436;DHT22;6790;49.520;8.504;2024-01-06T01:46:42;4.30;99.90
13436;DHT22;6790;49.520;8.504;2024-01-06T01:49:08;4.40;99.90
13436;DHT22;6790;49.520;8.504;2024-01-06T01:51:35;4.50;99.90
13436;DHT22;6790;49.520;8.504;2024-01-06T01:54:02;4.40;99.90
13436;DHT22;6790;49.520;8.504;2024-01-06T01:56:31;4.40;99.90
13436;DHT22;6790;49.520;8.504;2024-01-06T01:59:06;4.30;99.90
13436;DHT22;6790;49.520;8.504;2024-01-06T02:01:35;4.40;99.90
13436;DHT22;6790;49.520;8.504;2024-01-06T02:04:01;4.30;99.90
13436;DHT22;6790;49.520;8.504;2024-01-06T02:06:28;4.30;99.90
13436;DHT22;6790;49.520;8.504;2024-01-06T02:08:54;4.20;99.90
13436;DHT22;6790;49.520;8.504;2024-01-06T02:11:20;4.20;99.90
13436;DHT22;6790;49.520;8.504;2024-01-06T02:13:46;4.30;99.90
13436;DHT22;6790;49.520;8.504;2024-01-06T02:16:11;4.30;99.90
13436;DHT22;6790;49.520;8.504;2024-01-06T02:18:59;4.30;99.90
13436;DHT22;6790;49.520;8.504;2024-01-06T02:21:27;4.30;99.90
13436;DHT22;6790;49.520;8.504;2024-01-06T02:23:53;4.20;99.90
13436;DHT22;6790;49.520;8.504;2024-01-06T02:26:19;4.30;99.90
13436;DHT22;6790;49.520;8.504;2024-01-06T02:28:45;4.30;99.90
13436;DHT22;6790;49.520;8.504;2024-01-06T02:31:13;4.40;99.90
13436;DHT22;6790;49.520;8.504;2024-01-06T02:33:39;4.50;99.90
13436;DHT22;6790;49.520;8.504;2024-01-06T02:36:05;4.50;99.90
13436;DHT22;6790;49.520;8.504;2024-01-06T02:38:30;4.50;99.90
13436;DHT22;6790;49.520;8.504;2024-01-06T02:40:56;4.60;99.90
13436;DHT22;6790;49.520;8.504;2024-01-06T02:43:22;4.60;99.90
13436;DHT22;6790;49.520;8.504;2024-01-06T02:45:48;4.60;99.90
13436;DHT22;6790;49.520;8.504;2024-01-06T02:48:16;4.50;99.90
13436;DHT22;6790;49.520;8.504;2024-01-06T02:50:41;4.60;99.90
13436;DHT22;6790;49.520;8.504;2024-01-06T02:53:07;4.70;99.90
13436;DHT22;6790;49.520;8.504;2024-01-06T02:55:35;4.80;99.90
13436;DHT22;6790;49.520;8.504;2024-01-06T02:58:00;4.90;99.90
13436;DHT22;6790;49.520;8.504;2024-01-06T03:00:26;4.90;99.90
13436;DHT22;6790;49.520;8.504;2024-01-06T03:02:52;4.90;99.90
13436;DHT22;6790;49.520;8.504;2024-01-06T03:05:17;5.00;99.90
13436;DHT22;6790;49.520;8.504;2024-01-06T03:07:43;5.10;99.90
13436;DHT22;6790;49.520;8.504;2024-01-06T03:10:09;5.20;99.90
13436;DHT22;6790;49.520;8.504;2024-01-06T03:12:35;5.20;99.90
13436;DHT22;6790;49.520;8.504;2024-01-06T03:15:01;5.20;99.90
13436;DHT22;6790;49.520;8.504;2024-01-06T03:17:26;5.20;99.90
13436;DHT22;6790;49.520;8.504;2024-01-06T03:19:54;5.20;99.90
13436;DHT22;6790;49.520;8.504;2024-01-06T03:22:20;5.20;99.90
13436;DHT22;6790;49.520;8.504;2024-01-06T03:24:45;5.20;99.90
13436;DHT22;6790;49.520;8.504;2024-01-06T03:27:11;5.30;99.90
13436;DHT22;6790;49.520;8.504;2024-01-06T03:29:38;5.30;99.90
13436;DHT22;6790;49.520;8.504;2024-01-06T03:32:04;5.30;99.90
13436;DHT22;6790;49.520;8.504;2024-01-06T03:34:29;5.30;99.90
13436;DHT22;6790;49.520;8.504;2024-01-06T03:36:55;5.30;99.90
13436;DHT22;6790;49.520;8.504;2024-01-06T03:39:21;5.30;99.90
13436;DHT22;6790;49.520;8.504;2024-01-06T03:41:48;5.40;99.90
13436;DHT22;6790;49.520;8.504;2024-01-06T03:44:13;5.30;99.90
13436;DHT22;6790;49.520;8.504;2024-01-06T03:46:39;5.30;99.90
13436;DHT22;6790;49.520;8.504;2024-01-06T03:49:05;5.30;99.90
13436;DHT22;6790;49.520;8.504;2024-01-06T03:51:30;5.40;99.90
13436;DHT22;6790;49.520;8.504;2024-01-06T03:53:56;5.30;99.90
13436;DHT22;6790;49.520;8.504;2024-01-06T03:56:22;5.40;99.90
13436;DHT22;6790;49.520;8.504;2024-01-06T03:58:47;5.30;99.90
13436;DHT22;6790;49.520;8.504;2024-01-06T04:01:13;5.30;99.90
13436;DHT22;6790;49.520;8.504;2024-01-06T04:03:39;5.40;99.90
13436;DHT22;6790;49.520;8.504;2024-01-06T04:06:08;5.40;99.90
13436;DHT22;6790;49.520;8.504;2024-01-06T04:08:35;5.40;99.90
13436;DHT22;6790;49.520;8.504;2024-01-06T04:11:01;5.40;99.90
13436;DHT22;6790;49.520;8.504;2024-01-06T04:13:28;5.40;99.90
13436;DHT22;6790;49.520;8.504;2024-01-06T04:15:54;5.40;99.90
13436;DHT22;6790;49.520;8.504;2024-01-06T04:18:19;5.40;99.90
13436;DHT22;6790;49.520;8.504;2024-01-06T04:20:45;5.40;99.90
13436;DHT22;6790;49.520;8.504;2024-01-06T04:23:11;5.40;99.90
13436;DHT22;6790;49.520;8.504;2024-01-06T04:25:36;5.40;99.90
13436;DHT22;6790;49.520;8.504;2024-01-06T04:28:02;5.40;99.90
13436;DHT22;6790;49.520;8.504;2024-01-06T04:30:28;5.40;99.90
13436;DHT22;6790;49.520;8.504;2024-01-06T04:32:53;5.40;99.90
13436;DHT22;6790;49.520;8.504;2024-01-06T04:35:20;5.40;99.90
13436;DHT22;6790;49.520;8.504;2024-01-06T04:37:46;5.40;99.90
13436;DHT22;6790;49.520;8.504;2024-01-06T04:40:13;5.40;99.90
13436;DHT22;6790;49.520;8.504;2024-01-06T04:42:38;5.40;99.90
13436;DHT22;6790;49.520;8.504;2024-01-06T04:45:04;5.40;99.90
13436;DHT22;6790;49.520;8.504;2024-01-06T04:47:30;5.40;99.90
13436;DHT22;6790;49.520;8.504;2024-01-06T04:49:56;5.40;99.90
13436;DHT22;6790;49.520;8.504;2024-01-06T04:52:22;5.40;99.90
13436;DHT22;6790;49.520;8.504;2024-01-06T04:54:48;5.40;99.90
13436;DHT22;6790;49.520;8.504;2024-01-06T04:57:14;5.40;99.90
13436;DHT22;6790;49.520;8.504;2024-01-06T04:59:40;5.40;99.90
13436;DHT22;6790;49.520;8.504;2024-01-06T05:02:06;5.40;99.90
13436;DHT22;6790;49.520;8.504;2024-01-06T05:04:31;5.40;99.90
13436;DHT22;6790;49.520;8.504;2024-01-06T05:06:58;5.40;99.90
13436;DHT22;6790;49.520;8.504;2024-01-06T05:09:25;5.30;99.90
13436;DHT22;6790;49.520;8.504;2024-01-06T05:11:51;5.30;99.90
13436;DHT22;6790;49.520;8.504;2024-01-06T05:14:16;5.30;99.90
13436;DHT22;6790;49.520;8.504;2024-01-06T05:16:42;5.30;99.90
13436;DHT22;6790;49.520;8.504;2024-01-06T05:19:08;5.30;99.90
13436;DHT22;6790;49.520;8.504;2024-01-06T05:21:34;5.30;99.90
13436;DHT22;6790;49.520;8.504;2024-01-06T05:24:00;5.30;99.90
13436;DHT22;6790;49.520;8.504;2024-01-06T05:26:26;5.30;99.90
13436;DHT22;6790;49.520;8.504;2024-01-06T05:28:52;5.30;99.90
13436;DHT22;6790;49.520;8.504;2024-01-06T05:31:18;5.30;99.90
13436;DHT22;6790;49.520;8.504;2024-01-06T05:33:44;5.30;99.90
13436;DHT22;6790;49.520;8.504;2024-01-06T05:36:09;5.30;99.90
13436;DHT22;6790;49.520;8.504;2024-01-06T05:38:36;5.30;99.90
13436;DHT22;6790;49.520;8.504;2024-01-06T05:41:02;5.20;99.90
13436;DHT22;6790;49.520;8.504;2024-01-06T05:43:28;5.30;99.90
13436;DHT22;6790;49.520;8.504;2024-01-06T05:45:53;5.30;99.90
13436;DHT22;6790;49.520;8.504;2024-01-06T05:48:19;5.30;99.90
13436;DHT22;6790;49.520;8.504;2024-01-06T05:50:45;5.30;99.90
13436;DHT22;6790;49.520;8.504;2024-01-06T05:53:11;5.30;99.90
13436;DHT22;6790;49.520;8.504;2024-01-06T05:55:37;5.30;99.90
13436;DHT22;6790;49.520;8.504;2024-01-06T05:58:03;5.30;99.90
13436;DHT22;6790;49.520;8.504;2024-01-06T06:00:29;5.30;99.90
13436;DHT22;6790;49.520;8.504;2024-01-06T06:02:57;5.30;99.90
13436;DHT22;6790;49.520;8.504;2024-01-06T06:05:23;5.30;99.90
13436;DHT22;6790;49.520;8.504;2024-01-06T06:07:48;5.30;99.90
13436;DHT22;6790;49.520;8.504;2024-01-06T06:10:14;5.30;99.90
13436;DHT22;6790;49.520;8.504;2024-01-06T06:12:41;5.30;99.90
13436;DHT22;6790;49.520;8.504;2024-01-06T06:15:07;5.30;99.90
13436;DHT22;6790;49.520;8.504;2024-01-06T06:17:33;5.30;99.90
13436;DHT22;6790;49.520;8.504;2024-01-06T06:19:59;5.30;99.90
13436;DHT22;6790;49.520;8.504;2024-01-06T06:22:26;5.30;99.90
13436;DHT22;6790;49.520;8.504;2024-01-06T06:24:58;5.30;99.90
13436;DHT22;6790;49.520;8.504;2024-01-06T06:27:25;5.30;99.90
13436;DHT22;6790;49.520;8.504;2024-01-06T06:29:52;5.30;99.90
13436;DHT22;6790;49.520;8.504;2024-01-06T06:32:18;5.40;99.90
13436;DHT22;6790;49.520;8.504;2024-01-06T06:34:44;5.40;99.90
13436;DHT22;6790;49.520;8.504;2024-01-06T06:37:10;5.40;99.90
13436;DHT22;6790;49.520;8.504;2024-01-06T06:39:35;5.40;99.90
13436;DHT22;6790;49.520;8.504;2024-01-06T06:42:02;5.40;99.90
13436;DHT22;6790;49.520;8.504;2024-01-06T06:44:28;5.40;99.90
13436;DHT22;6790;49.520;8.504;2024-01-06T06:46:55;5.40;99.90
13436;DHT22;6790;49.520;8.504;2024-01-06T06:49:20;5.30;99.90
13436;DHT22;6790;49.520;8.504;2024-01-06T06:51:46;5.30;99.90
13436;DHT22;6790;49.520;8.504;2024-01-06T06:54:14;5.30;99.90
13436;DHT22;6790;49.520;8.504;2024-01-06T06:56:41;5.30;99.90
13436;DHT22;6790;49.520;8.504;2024-01-06T06:59:07;5.30;99.90
13436;DHT22;6790;49.520;8.504;2024-01-06T07:01:33;5.30;99.90
13436;DHT22;6790;49.520;8.504;2024-01-06T07:03:59;5.20;99.90
13436;DHT22;6790;49.520;8.504;2024-01-06T07:06:25;5.20;99.90
13436;DHT22;6790;49.520;8.504;2024-01-06T07:08:51;5.20;99.90
13436;DHT22;6790;49.520;8.504;2024-01-06T07:11:16;5.20;99.90
13436;DHT22;6790;49.520;8.504;2024-01-06T07:13:44;5.20;99.90
13436;DHT22;6790;49.520;8.504;2024-01-06T07:16:09;5.20;99.90
13436;DHT22;6790;49.520;8.504;2024-01-06T07:18:37;5.20;99.90
13436;DHT22;6790;49.520;8.504;2024-01-06T07:21:04;5.20;99.90
13436;DHT22;6790;49.520;8.504;2024-01-06T07:23:32;5.20;99.90
13436;DHT22;6790;49.520;8.504;2024-01-06T07:25:58;5.20;99.90
13436;DHT22;6790;49.520;8.504;2024-01-06T07:28:24;5.20;99.90
13436;DHT22;6790;49.520;8.504;2024-01-06T07:30:50;5.20;99.90
13436;DHT22;6790;49.520;8.504;2024-01-06T07:33:15;5.20;99.90
13436;DHT22;6790;49.520;8.504;2024-01-06T07:35:41;5.20;99.90
13436;DHT22;6790;49.520;8.504;2024-01-06T07:38:09;5.20;99.90
13436;DHT22;6790;49.520;8.504;2024-01-06T07:40:38;5.20;99.90
13436;DHT22;6790;49.520;8.504;2024-01-06T07:43:04;5.20;99.90
13436;DHT22;6790;49.520;8.504;2024-01-06T07:45:30;5.20;99.90
13436;DHT22;6790;49.520;8.504;2024-01-06T07:47:57;5.20;99.90
13436;DHT22;6790;49.520;8.504;2024-01-06T07:50:23;5.20;99.90
13436;DHT22;6790;49.520;8.504;2024-01-06T07:52:49;5.20;99.90
13436;DHT22;6790;49.520;8.504;2024-01-06T07:55:15;5.20;99.90
13436;DHT22;6790;49.520;8.504;2024-01-06T07:57:41;5.20;99.90
13436;DHT22;6790;49.520;8.504;2024-01-06T08:00:08;5.20;99.90
13436;DHT22;6790;49.520;8.504;2024-01-06T08:02:34;5.30;99.90
13436;DHT22;6790;49.520;8.504;2024-01-06T08:04:59;5.30;99.90
13436;DHT22;6790;49.520;8.504;2024-01-06T08:07:25;5.30;99.90
13436;DHT22;6790;49.520;8.504;2024-01-06T08:09:51;5.30;99.90
13436;DHT22;6790;49.520;8.504;2024-01-06T08:12:16;5.20;99.90
13436;DHT22;6790;49.520;8.504;2024-01-06T08:14:42;5.30;99.90
13436;DHT22;6790;49.520;8.504;2024-01-06T08:17:08;5.30;99.90
13436;DHT22;6790;49.520;8.504;2024-01-06T08:19:33;5.30;99.90
13436;DHT22;6790;49.520;8.504;2024-01-06T08:22:01;5.30;99.90
13436;DHT22;6790;49.520;8.504;2024-01-06T08:24:26;5.30;99.90
13436;DHT22;6790;49.520;8.504;2024-01-06T08:26:52;5.30;99.90
13436;DHT22;6790;49.520;8.504;2024-01-06T08:29:18;5.40;99.90
13436;DHT22;6790;49.520;8.504;2024-01-06T08:31:45;5.40;99.90
13436;DHT22;6790;49.520;8.504;2024-01-06T08:34:11;5.40;99.90
13436;DHT22;6790;49.520;8.504;2024-01-06T08:36:36;5.40;99.90
13436;DHT22;6790;49.520;8.504;2024-01-06T08:39:02;5.40;99.90
13436;DHT22;6790;49.520;8.504;2024-01-06T08:41:28;5.40;99.90
13436;DHT22;6790;49.520;8.504;2024-01-06T08:43:54;5.40;99.90
13436;DHT22;6790;49.520;8.504;2024-01-06T08:46:19;5.40;99.90
13436;DHT22;6790;49.520;8.504;2024-01-06T08:48:45;5.40;99.90
13436;DHT22;6790;49.520;8.504;2024-01-06T08:51:11;5.40;99.90
13436;DHT22;6790;49.520;8.504;2024-01-06T08:53:37;5.40;99.90
13436;DHT22;6790;49.520;8.504;2024-01-06T08:56:03;5.40;99.90
13436;DHT22;6790;49.520;8.504;2024-01-06T08:58:28;5.40;99.90
13436;DHT22;6790;49.520;8.504;2024-01-06T09:00:54;5.40;99.90
13436;DHT22;6790;49.520;8.504;2024-01-06T09:03:20;5.40;99.90
13436;DHT22;6790;49.520;8.504;2024-01-06T09:05:52;5.40;99.90
13436;DHT22;6790;49.520;8.504;2024-01-06T09:08:18;5.40;99.90
13436;DHT22;6790;49.520;8.504;2024-01-06T09:10:44;5.40;99.90
13436;DHT22;6790;49.520;8.504;2024-01-06T09:13:09;5.50;99.90
13436;DHT22;6790;49.520;8.504;2024-01-06T09:15:35;5.50;99.90
13436;DHT22;6790;49.520;8.504;2024-01-06T09:18:01;5.50;99.90
13436;DHT22;6790;49.520;8.504;2024-01-06T09:20:28;5.50;99.90
13436;DHT22;6790;49.520;8.504;2024-01-06T09:22:54;5.50;99.90
13436;DHT22;6790;49.520;8.504;2024-01-06T09:25:19;5.50;99.90
13436;DHT22;6790;49.520;8.504;2024-01-06T09:27:48;5.60;99.90
13436;DHT22;6790;49.520;8.504;2024-01-06T09:30:14;5.60;99.90
13436;DHT22;6790;49.520;8.504;2024-01-06T09:32:39;5.60;99.90
13436;DHT22;6790;49.520;8.504;2024-01-06T09:35:05;5.60;99.90
13436;DHT22;6790;49.520;8.504;2024-01-06T09:37:31;5.70;99.90
13436;DHT22;6790;49.520;8.504;2024-01-06T09:39:57;5.70;99.90
13436;DHT22;6790;49.520;8.504;2024-01-06T09:42:22;5.70;99.90
13436;DHT22;6790;49.520;8.504;2024-01-06T09:44:48;5.70;99.90
13436;DHT22;6790;49.520;8.504;2024-01-06T09:47:15;5.70;99.90
13436;DHT22;6790;49.520;8.504;2024-01-06T09:49:50;5.70;99.90
13436;DHT22;6790;49.520;8.504;2024-01-06T09:52:20;5.70;99.90
13436;DHT22;6790;49.520;8.504;2024-01-06T09:54:52;5.70;99.90
13436;DHT22;6790;49.520;8.504;2024-01-06T09:57:20;5.70;99.90
13436;DHT22;6790;49.520;8.504;2024-01-06T09:59:46;5.70;99.90
13436;DHT22;6790;49.520;8.504;2024-01-06T10:02:16;5.70;99.90
13436;DHT22;6790;49.520;8.504;2024-01-06T10:04:45;5.80;99.90
13436;DHT22;6790;49.520;8.504;2024-01-06T10:07:11;5.90;99.90
13436;DHT22;6790;49.520;8.504;2024-01-06T10:09:40;6.10;99.90
13436;DHT22;6790;49.520;8.504;2024-01-06T10:12:07;6.40;99.90
13436;DHT22;6790;49.520;8.504;2024-01-06T10:14:33;6.60;99.90
13436;DHT22;6790;49.520;8.504;2024-01-06T10:16:59;6.80;99.90
13436;DHT22;6790;49.520;8.504;2024-01-06T10:19:25;6.70;99.90
13436;DHT22;6790;49.520;8.504;2024-01-06T10:21:51;6.70;99.90
13436;DHT22;6790;49.520;8.504;2024-01-06T10:24:18;6.70;99.90
13436;DHT22;6790;49.520;8.504;2024-01-06T10:26:46;6.70;99.90
13436;DHT22;6790;49.520;8.504;2024-01-06T10:29:13;6.70;99.90
13436;DHT22;6790;49.520;8.504;2024-01-06T10:31:38;6.80;99.90
13436;DHT22;6790;49.520;8.504;2024-01-06T10:34:05;6.80;99.90
13436;DHT22;6790;49.520;8.504;2024-01-06T10:36:31;6.90;99.90
13436;DHT22;6790;49.520;8.504;2024-01-06T10:38:58;6.90;99.90
13436;DHT22;6790;49.520;8.504;2024-01-06T10:41:24;7.10;99.90
13436;DHT22;6790;49.520;8.504;2024-01-06T10:43:51;7.10;99.90
13436;DHT22;6790;49.520;8.504;2024-01-06T10:46:19;6.90;99.90
13436;DHT22;6790;49.520;8.504;2024-01-06T10:48:46;7.00;99.90
13436;DHT22;6790;49.520;8.504;2024-01-06T10:51:12;7.00;99.90
13436;DHT22;6790;49.520;8.504;2024-01-06T10:53:40;6.90;99.90
13436;DHT22;6790;49.520;8.504;2024-01-06T10:56:09;7.00;99.90
13436;DHT22;6790;49.520;8.504;2024-01-06T10:58:43;6.90;99.90
13436;DHT22;6790;49.520;8.504;2024-01-06T11:01:12;6.90;99.90
13436;DHT22;6790;49.520;8.504;2024-01-06T11:03:39;6.90;99.90
13436;DHT22;6790;49.520;8.504;2024-01-06T11:06:08;6.90;99.90
13436;DHT22;6790;49.520;8.504;2024-01-06T11:08:50;6.90;99.90
13436;DHT22;6790;49.520;8.504;2024-01-06T11:11:18;6.90;99.90
13436;DHT22;6790;49.520;8.504;2024-01-06T11:13:45;7.00;99.90
13436;DHT22;6790;49.520;8.504;2024-01-06T11:16:33;7.00;99.90
13436;DHT22;6790;49.520;8.504;2024-01-06T11:19:00;7.00;99.90
13436;DHT22;6790;49.520;8.504;2024-01-06T11:21:26;7.00;99.90
13436;DHT22;6790;49.520;8.504;2024-01-06T11:24:24;6.90;99.90
13436;DHT22;6790;49.520;8.504;2024-01-06T11:26:53;6.90;99.90
13436;DHT22;6790;49.520;8.504;2024-01-06T11:29:21;6.90;99.90
13436;DHT22;6790;49.520;8.504;2024-01-06T11:32:24;6.90;99.90
13436;DHT22;6790;49.520;8.504;2024-01-06T11:45:31;6.70;99.90
13436;DHT22;6790;49.520;8.504;2024-01-06T11:48:02;6.70;99.90
13436;DHT22;6790;49.520;8.504;2024-01-06T11:50:34;6.70;99.90
13436;DHT22;6790;49.520;8.504;2024-01-06T11:53:04;6.80;99.90
13436;DHT22;6790;49.520;8.504;2024-01-06T11:55:30;6.80;99.90
13436;DHT22;6790;49.520;8.504;2024-01-06T11:58:00;6.90;99.90
13436;DHT22;6790;49.520;8.504;2024-01-06T12:00:31;6.90;99.90
13436;DHT22;6790;49.520;8.504;2024-01-06T12:03:01;6.90;99.90
13436;DHT22;6790;49.520;8.504;2024-01-06T12:05:28;6.80;99.90
13436;DHT22;6790;49.520;8.504;2024-01-06T12:07:55;6.80;99.90
13436;DHT22;6790;49.520;8.504;2024-01-06T12:10:23;6.80;99.90
13436;DHT22;6790;49.520;8.504;2024-01-06T12:12:57;6.80;99.90
13436;DHT22;6790;49.520;8.504;2024-01-06T12:15:34;6.70;99.90
13436;DHT22;6790;49.520;8.504;2024-01-06T12:18:03;6.70;99.90
13436;DHT22;6790;49.520;8.504;2024-01-06T12:20:29;6.70;99.90
13436;DHT22;6790;49.520;8.504;2024-01-06T12:22:55;6.70;99.90
13436;DHT22;6790;49.520;8.504;2024-01-06T12:25:22;6.70;99.90
13436;DHT22;6790;49.520;8.504;2024-01-06T12:27:49;6.70;99.90
13436;DHT22;6790;49.520;8.504;2024-01-06T12:30:17;6.70;99.90
13436;DHT22;6790;49.520;8.504;2024-01-06T12:32:47;6.70;99.90
13436;DHT22;6790;49.520;8.504;2024-01-06T12:35:21;6.70;99.90
13436;DHT22;6790;49.520;8.504;2024-01-06T12:37:47;6.60;99.90
13436;DHT22;6790;49.520;8.504;2024-01-06T12:40:14;6.50;99.90
13436;DHT22;6790;49.520;8.504;2024-01-06T12:42:42;6.50;99.90
13436;DHT22;6790;49.520;8.504;2024-01-06T12:45:09;6.60;99.90
13436;DHT22;6790;49.520;8.504;2024-01-06T12:47:38;6.60;99.90
13436;DHT22;6790;49.520;8.504;2024-01-06T12:50:04;6.60;99.90
13436;DHT22;6790;49.520;8.504;2024-01-06T12:52:30;6.70;99.90
13436;DHT22;6790;49.520;8.504;2024-01-06T12:54:56;6.60;99.90
13436;DHT22;6790;49.520;8.504;2024-01-06T12:57:22;6.70;99.90
13436;DHT22;6790;49.520;8.504;2024-01-06T12:59:47;6.70;99.90
13436;DHT22;6790;49.520;8.504;2024-01-06T13:02:13;6.70;99.90
13436;DHT22;6790;49.520;8.504;2024-01-06T13:04:39;6.70;99.90
13436;DHT22;6790;49.520;8.504;2024-01-06T13:07:05;6.70;99.90
13436;DHT22;6790;49.520;8.504;2024-01-06T13:09:31;6.60;99.90
13436;DHT22;6790;49.520;8.504;2024-01-06T13:11:58;6.70;99.90
13436;DHT22;6790;49.520;8.504;2024-01-06T13:14:26;6.70;99.90
13436;DHT22;6790;49.520;8.504;2024-01-06T13:16:52;6.70;99.90
13436;DHT22;6790;49.520;8.504;2024-01-06T13:19:18;6.70;99.90
13436;DHT22;6790;49.520;8.504;2024-01-06T13:21:45;6.60;99.90
13436;DHT22;6790;49.520;8.504;2024-01-06T13:24:10;6.70;99.90
13436;DHT22;6790;49.520;8.504;2024-01-06T13:26:37;6.60;99.90
13436;DHT22;6790;49.520;8.504;2024-01-06T13:29:03;6.60;99.90
13436;DHT22;6790;49.520;8.504;2024-01-06T13:31:29;6.70;99.90
13436;DHT22;6790;49.520;8.504;2024-01-06T13:33:56;6.60;99.90
13436;DHT22;6790;49.520;8.504;2024-01-06T13:36:22;6.60;99.90
13436;DHT22;6790;49.520;8.504;2024-01-06T13:38:48;6.60;99.90
13436;DHT22;6790;49.520;8.504;2024-01-06T13:41:14;6.60;99.90
13436;DHT22;6790;49.520;8.504;2024-01-06T13:43:40;6.60;99.90
13436;DHT22;6790;49.520;8.504;2024-01-06T13:46:06;6.60;99.90
13436;DHT22;6790;49.520;8.504;2024-01-06T13:48:32;6.60;99.90
13436;DHT22;6790;49.520;8.504;2024-01-06T13:50:58;6.60;99.90
13436;DHT22;6790;49.520;8.504;2024-01-06T13:53:24;6.60;99.90
13436;DHT22;6790;49.520;8.504;2024-01-06T13:55:50;6.60;99.90
13436;DHT22;6790;49.520;8.504;2024-01-06T13:58:16;6.60;99.90
13436;DHT22;6790;49.520;8.504;2024-01-06T14:00:43;6.70;99.90
13436;DHT22;6790;49.520;8.504;2024-01-06T14:03:09;6.70;99.90
13436;DHT22;6790;49.520;8.504;2024-01-06T14:05:35;6.70;99.90
13436;DHT22;6790;49.520;8.504;2024-01-06T14:08:01;6.70;99.90
13436;DHT22;6790;49.520;8.504;2024-01-06T14:10:27;6.70;99.90
13436;DHT22;6790;49.520;8.504;2024-01-06T14:12:53;6.80;99.90
13436;DHT22;6790;49.520;8.504;2024-01-06T14:15:20;6.70;99.90
13436;DHT22;6790;49.520;8.504;2024-01-06T14:17:45;6.60;99.90
13436;DHT22;6790;49.520;8.504;2024-01-06T14:20:18;6.60;99.90
13436;DHT22;6790;49.520;8.504;2024-01-06T14:22:45;6.60;99.90
13436;DHT22;6790;49.520;8.504;2024-01-06T14:25:12;6.60;99.90
13436;DHT22;6790;49.520;8.504;2024-01-06T14:27:38;6.50;99.90
13436;DHT22;6790;49.520;8.504;2024-01-06T14:30:04;6.50;99.90
13436;DHT22;6790;49.520;8.504;2024-01-06T14:32:32;6.50;99.90
13436;DHT22;6790;49.520;8.504;2024-01-06T14:34:58;6.50;99.90
13436;DHT22;6790;49.520;8.504;2024-01-06T14:37:24;6.50;99.90
13436;DHT22;6790;49.520;8.504;2024-01-06T14:39:49;6.40;99.90
13436;DHT22;6790;49.520;8.504;2024-01-06T14:42:15;6.40;99.90
13436;DHT22;6790;49.520;8.504;2024-01-06T14:44:41;6.40;99.90
13436;DHT22;6790;49.520;8.504;2024-01-06T14:47:07;6.50;99.90
13436;DHT22;6790;49.520;8.504;2024-01-06T14:49:33;6.50;99.90
13436;DHT22;6790;49.520;8.504;2024-01-06T14:51:59;6.50;99.90
13436;DHT22;6790;49.520;8.504;2024-01-06T14:54:27;6.50;99.90
13436;DHT22;6790;49.520;8.504;2024-01-06T14:56:56;6.50;99.90
13436;DHT22;6790;49.520;8.504;2024-01-06T14:59:23;6.40;99.90
13436;DHT22;6790;49.520;8.504;2024-01-06T15:01:49;6.40;99.90
13436;DHT22;6790;49.520;8.504;2024-01-06T15:04:15;6.40;99.90
13436;DHT22;6790;49.520;8.504;2024-01-06T15:06:43;6.40;99.90
13436;DHT22;6790;49.520;8.504;2024-01-06T15:09:09;6.40;99.90
13436;DHT22;6790;49.520;8.504;2024-01-06T15:11:35;6.30;99.90
13436;DHT22;6790;49.520;8.504;2024-01-06T15:14:01;6.30;99.90
13436;DHT22;6790;49.520;8.504;2024-01-06T15:16:30;6.20;99.90
13436;DHT22;6790;49.520;8.504;2024-01-06T15:18:56;6.30;99.90
13436;DHT22;6790;49.520;8.504;2024-01-06T15:21:24;6.30;99.90
13436;DHT22;6790;49.520;8.504;2024-01-06T15:23:52;6.20;99.90
13436;DHT22;6790;49.520;8.504;2024-01-06T15:26:22;6.20;99.90
13436;DHT22;6790;49.520;8.504;2024-01-06T15:28:51;6.20;99.90
13436;DHT22;6790;49.520;8.504;2024-01-06T15:31:16;6.20;99.90
13436;DHT22;6790;49.520;8.504;2024-01-06T15:33:42;6.20;99.90
13436;DHT22;6790;49.520;8.504;2024-01-06T15:36:08;6.20;99.90
13436;DHT22;6790;49.520;8.504;2024-01-06T15:38:34;6.20;99.90
13436;DHT22;6790;49.520;8.504;2024-01-06T15:41:00;6.20;99.90
13436;DHT22;6790;49.520;8.504;2024-01-06T15:43:26;6.20;99.90
13436;DHT22;6790;49.520;8.504;2024-01-06T15:45:52;6.20;99.90
13436;DHT22;6790;49.520;8.504;2024-01-06T15:48:19;6.10;99.90
13436;DHT22;6790;49.520;8.504;2024-01-06T15:50:45;6.20;99.90
13436;DHT22;6790;49.520;8.504;2024-01-06T15:53:11;6.20;99.90
13436;DHT22;6790;49.520;8.504;2024-01-06T15:55:39;6.20;99.90
13436;DHT22;6790;49.520;8.504;2024-01-06T15:58:06;6.10;99.90
13436;DHT22;6790;49.520;8.504;2024-01-06T16:00:32;6.10;99.90
13436;DHT22;6790;49.520;8.504;2024-01-06T16:02:59;6.20;99.90
13436;DHT22;6790;49.520;8.504;2024-01-06T16:05:25;6.10;99.90
13436;DHT22;6790;49.520;8.504;2024-01-06T16:07:51;6.10;99.90
13436;DHT22;6790;49.520;8.504;2024-01-06T16:10:19;6.10;99.90